Etusivu
METAR-TAF:

METAR-TAF

Lentoasemat :

Skövde, Ruotsi

Leveyspiiri: 58-27N, Pituuspiiri: 013-58E, korkeus merenpinnasta: 98 m

Tämänhetkinen sää

Tämä raportti tehtiin 27 minuuttia sitten, kello 15.20 UTC
Tuuli 3 kn pohjoisesta
Lämpötila 11°C
Kosteus 82%
Ilmanpaine 1023 hPa
Näkyvyys 10 km tai enemmän
Hajonneita pilviä 1000 ft:n korkeudessa
Pilvistä 1500 ft:n korkeudessa

METAR: ESGR 211520Z 36003KT 9999 BKN010 OVC015 11/08 Q1023

Aika: 17:47 (15:47 UTC)


TAF: puuttuu

Säähavainnot ja -ennusteet yli 4000 lentoasemalta (METAR- ja TAF-raportit).

Käytössä olevat sääasemat on merkitty karttaan keltaisilla ja punaisilla pisteillä.

Aseta hiiri pisteen päälle nähdäksesi sääaseman nimen.

Klikkaa sitten nähdäksesi säähavainnot ja -ennusteet.

Kartan vaihtaminen: klikkaa mustalla rastilla varustettuja vihreitä pisteitä, niin voit zoomata sisään; viivalla varustettua vihreää pistettä, niin voit zoomata ulos tai vihreitä nuolia, niin pääset viereisille kartoille.


METAR-TAF: